sensor_id;sensor_type;location;lat;lon;timestamp;P1;durP1;ratioP1;P2;durP2;ratioP2
26036;SDS011;13810;48.376;10.944;2022-07-29T00:00:11;5.93;;;3.60;;
26036;SDS011;13810;48.376;10.944;2022-07-29T00:00:42;4.93;;;3.38;;
26036;SDS011;13810;48.376;10.944;2022-07-29T00:01:15;4.88;;;3.22;;
26036;SDS011;13810;48.376;10.944;2022-07-29T00:01:46;6.32;;;3.30;;
26036;SDS011;13810;48.376;10.944;2022-07-29T00:02:16;5.38;;;3.42;;
26036;SDS011;13810;48.376;10.944;2022-07-29T00:02:47;6.03;;;3.25;;
26036;SDS011;13810;48.376;10.944;2022-07-29T00:03:18;9.85;;;3.85;;
26036;SDS011;13810;48.376;10.944;2022-07-29T00:03:49;5.88;;;3.65;;
26036;SDS011;13810;48.376;10.944;2022-07-29T00:04:19;3.90;;;3.05;;
26036;SDS011;13810;48.376;10.944;2022-07-29T00:04:50;5.47;;;3.78;;
26036;SDS011;13810;48.376;10.944;2022-07-29T00:05:20;6.93;;;3.40;;
26036;SDS011;13810;48.376;10.944;2022-07-29T00:05:51;4.57;;;3.30;;
26036;SDS011;13810;48.376;10.944;2022-07-29T00:06:23;4.80;;;3.83;;
26036;SDS011;13810;48.376;10.944;2022-07-29T00:06:54;6.20;;;3.42;;
26036;SDS011;13810;48.376;10.944;2022-07-29T00:07:25;4.60;;;3.63;;
26036;SDS011;13810;48.376;10.944;2022-07-29T00:07:56;9.02;;;3.30;;
26036;SDS011;13810;48.376;10.944;2022-07-29T00:08:26;4.53;;;3.67;;
26036;SDS011;13810;48.376;10.944;2022-07-29T00:08:57;4.97;;;3.10;;
26036;SDS011;13810;48.376;10.944;2022-07-29T00:09:27;4.20;;;3.17;;
26036;SDS011;13810;48.376;10.944;2022-07-29T00:09:58;3.90;;;3.17;;
26036;SDS011;13810;48.376;10.944;2022-07-29T00:10:29;6.90;;;3.40;;
26036;SDS011;13810;48.376;10.944;2022-07-29T00:10:59;7.85;;;4.05;;
26036;SDS011;13810;48.376;10.944;2022-07-29T00:11:30;5.22;;;2.70;;
26036;SDS011;13810;48.376;10.944;2022-07-29T00:12:01;10.10;;;4.10;;
26036;SDS011;13810;48.376;10.944;2022-07-29T00:12:31;4.50;;;3.28;;
26036;SDS011;13810;48.376;10.944;2022-07-29T00:13:02;7.07;;;3.80;;
26036;SDS011;13810;48.376;10.944;2022-07-29T00:13:33;3.83;;;3.28;;
26036;SDS011;13810;48.376;10.944;2022-07-29T00:14:03;7.93;;;3.25;;
26036;SDS011;13810;48.376;10.944;2022-07-29T00:14:34;6.10;;;3.40;;
26036;SDS011;13810;48.376;10.944;2022-07-29T00:15:05;4.07;;;3.33;;
26036;SDS011;13810;48.376;10.944;2022-07-29T00:15:37;5.22;;;3.55;;
26036;SDS011;13810;48.376;10.944;2022-07-29T00:16:07;6.70;;;3.80;;
26036;SDS011;13810;48.376;10.944;2022-07-29T00:16:38;4.88;;;3.78;;
26036;SDS011;13810;48.376;10.944;2022-07-29T00:17:09;6.75;;;3.63;;
26036;SDS011;13810;48.376;10.944;2022-07-29T00:17:40;4.55;;;3.60;;
26036;SDS011;13810;48.376;10.944;2022-07-29T00:18:11;4.45;;;3.47;;
26036;SDS011;13810;48.376;10.944;2022-07-29T00:18:41;4.72;;;2.95;;
26036;SDS011;13810;48.376;10.944;2022-07-29T00:19:12;5.47;;;3.05;;
26036;SDS011;13810;48.376;10.944;2022-07-29T00:19:42;4.13;;;3.00;;
26036;SDS011;13810;48.376;10.944;2022-07-29T00:20:13;4.10;;;3.13;;
26036;SDS011;13810;48.376;10.944;2022-07-29T00:20:44;5.63;;;3.38;;
26036;SDS011;13810;48.376;10.944;2022-07-29T00:21:14;6.63;;;3.65;;
26036;SDS011;13810;48.376;10.944;2022-07-29T00:21:45;5.65;;;3.17;;
26036;SDS011;13810;48.376;10.944;2022-07-29T00:22:15;6.07;;;3.55;;
26036;SDS011;13810;48.376;10.944;2022-07-29T00:22:46;3.60;;;3.10;;
26036;SDS011;13810;48.376;10.944;2022-07-29T00:23:17;5.47;;;3.17;;
26036;SDS011;13810;48.376;10.944;2022-07-29T00:23:47;3.28;;;2.85;;
26036;SDS011;13810;48.376;10.944;2022-07-29T00:24:18;4.82;;;3.20;;
26036;SDS011;13810;48.376;10.944;2022-07-29T00:24:49;4.75;;;3.28;;
26036;SDS011;13810;48.376;10.944;2022-07-29T00:25:19;5.07;;;3.38;;
26036;SDS011;13810;48.376;10.944;2022-07-29T00:25:50;7.03;;;3.78;;
26036;SDS011;13810;48.376;10.944;2022-07-29T00:26:21;3.42;;;3.13;;
26036;SDS011;13810;48.376;10.944;2022-07-29T00:26:51;5.25;;;3.08;;
26036;SDS011;13810;48.376;10.944;2022-07-29T00:27:22;4.68;;;3.78;;
26036;SDS011;13810;48.376;10.944;2022-07-29T00:27:53;8.43;;;3.60;;
26036;SDS011;13810;48.376;10.944;2022-07-29T00:28:24;4.93;;;3.72;;
26036;SDS011;13810;48.376;10.944;2022-07-29T00:28:54;4.45;;;3.60;;
26036;SDS011;13810;48.376;10.944;2022-07-29T00:29:25;6.05;;;4.03;;
26036;SDS011;13810;48.376;10.944;2022-07-29T00:29:56;9.48;;;3.75;;
26036;SDS011;13810;48.376;10.944;2022-07-29T00:30:26;5.47;;;4.03;;
26036;SDS011;13810;48.376;10.944;2022-07-29T00:30:57;5.15;;;3.53;;
26036;SDS011;13810;48.376;10.944;2022-07-29T00:31:28;5.30;;;3.83;;
26036;SDS011;13810;48.376;10.944;2022-07-29T00:31:58;5.55;;;3.75;;
26036;SDS011;13810;48.376;10.944;2022-07-29T00:32:29;6.60;;;3.78;;
26036;SDS011;13810;48.376;10.944;2022-07-29T00:33:00;4.97;;;3.58;;
26036;SDS011;13810;48.376;10.944;2022-07-29T00:33:30;5.25;;;3.67;;
26036;SDS011;13810;48.376;10.944;2022-07-29T00:34:01;7.88;;;3.70;;
26036;SDS011;13810;48.376;10.944;2022-07-29T00:34:32;6.68;;;4.10;;
26036;SDS011;13810;48.376;10.944;2022-07-29T00:35:21;4.88;;;3.53;;
26036;SDS011;13810;48.376;10.944;2022-07-29T00:36:10;7.00;;;3.45;;
26036;SDS011;13810;48.376;10.944;2022-07-29T00:36:41;4.45;;;3.25;;
26036;SDS011;13810;48.376;10.944;2022-07-29T00:37:12;6.68;;;4.25;;
26036;SDS011;13810;48.376;10.944;2022-07-29T00:37:42;4.43;;;3.38;;
26036;SDS011;13810;48.376;10.944;2022-07-29T00:38:14;6.97;;;3.75;;
26036;SDS011;13810;48.376;10.944;2022-07-29T00:38:47;5.95;;;3.90;;
26036;SDS011;13810;48.376;10.944;2022-07-29T00:39:18;6.13;;;3.72;;
26036;SDS011;13810;48.376;10.944;2022-07-29T00:39:49;7.38;;;3.83;;
26036;SDS011;13810;48.376;10.944;2022-07-29T00:40:20;5.05;;;3.72;;
26036;SDS011;13810;48.376;10.944;2022-07-29T00:40:50;4.22;;;3.83;;
26036;SDS011;13810;48.376;10.944;2022-07-29T00:41:21;4.78;;;3.63;;
26036;SDS011;13810;48.376;10.944;2022-07-29T00:41:52;6.15;;;4.00;;
26036;SDS011;13810;48.376;10.944;2022-07-29T00:42:22;5.72;;;3.88;;
26036;SDS011;13810;48.376;10.944;2022-07-29T00:42:53;4.95;;;4.30;;
26036;SDS011;13810;48.376;10.944;2022-07-29T00:43:24;5.60;;;3.95;;
26036;SDS011;13810;48.376;10.944;2022-07-29T00:43:55;6.30;;;4.00;;
26036;SDS011;13810;48.376;10.944;2022-07-29T00:44:25;8.57;;;4.30;;
26036;SDS011;13810;48.376;10.944;2022-07-29T00:44:56;4.53;;;3.65;;
26036;SDS011;13810;48.376;10.944;2022-07-29T00:45:26;5.22;;;4.00;;
26036;SDS011;13810;48.376;10.944;2022-07-29T00:45:57;6.07;;;4.03;;
26036;SDS011;13810;48.376;10.944;2022-07-29T00:46:28;5.30;;;3.78;;
26036;SDS011;13810;48.376;10.944;2022-07-29T00:46:58;9.90;;;3.95;;
26036;SDS011;13810;48.376;10.944;2022-07-29T00:47:29;5.82;;;4.00;;
26036;SDS011;13810;48.376;10.944;2022-07-29T00:48:00;4.95;;;4.05;;
26036;SDS011;13810;48.376;10.944;2022-07-29T00:48:31;4.25;;;3.83;;
26036;SDS011;13810;48.376;10.944;2022-07-29T00:49:01;5.10;;;3.95;;
26036;SDS011;13810;48.376;10.944;2022-07-29T00:49:32;5.20;;;3.92;;
26036;SDS011;13810;48.376;10.944;2022-07-29T00:50:04;4.90;;;4.18;;
26036;SDS011;13810;48.376;10.944;2022-07-29T00:50:35;5.63;;;3.78;;
26036;SDS011;13810;48.376;10.944;2022-07-29T00:51:06;4.80;;;3.88;;
26036;SDS011;13810;48.376;10.944;2022-07-29T00:51:37;4.13;;;3.60;;
26036;SDS011;13810;48.376;10.944;2022-07-29T00:52:09;6.43;;;4.35;;
26036;SDS011;13810;48.376;10.944;2022-07-29T00:52:41;5.82;;;4.38;;
26036;SDS011;13810;48.376;10.944;2022-07-29T00:53:12;5.95;;;3.45;;
26036;SDS011;13810;48.376;10.944;2022-07-29T00:53:43;5.20;;;3.97;;
26036;SDS011;13810;48.376;10.944;2022-07-29T00:54:14;6.47;;;4.03;;
26036;SDS011;13810;48.376;10.944;2022-07-29T00:54:44;5.47;;;3.78;;
26036;SDS011;13810;48.376;10.944;2022-07-29T00:55:15;7.50;;;3.28;;
26036;SDS011;13810;48.376;10.944;2022-07-29T00:55:46;5.63;;;3.67;;
26036;SDS011;13810;48.376;10.944;2022-07-29T00:56:17;4.65;;;3.75;;
26036;SDS011;13810;48.376;10.944;2022-07-29T00:56:48;6.97;;;3.70;;
26036;SDS011;13810;48.376;10.944;2022-07-29T00:57:19;4.55;;;3.67;;
26036;SDS011;13810;48.376;10.944;2022-07-29T00:57:50;4.80;;;3.63;;
26036;SDS011;13810;48.376;10.944;2022-07-29T00:58:23;5.43;;;3.85;;
26036;SDS011;13810;48.376;10.944;2022-07-29T00:58:54;4.45;;;3.58;;
26036;SDS011;13810;48.376;10.944;2022-07-29T00:59:27;7.35;;;4.18;;
26036;SDS011;13810;48.376;10.944;2022-07-29T00:59:58;8.35;;;4.00;;
26036;SDS011;13810;48.376;10.944;2022-07-29T01:00:29;4.90;;;3.55;;
26036;SDS011;13810;48.376;10.944;2022-07-29T01:01:00;10.25;;;3.90;;
26036;SDS011;13810;48.376;10.944;2022-07-29T01:01:31;7.75;;;4.07;;
26036;SDS011;13810;48.376;10.944;2022-07-29T01:02:02;4.88;;;4.13;;
26036;SDS011;13810;48.376;10.944;2022-07-29T01:02:33;6.72;;;4.13;;
26036;SDS011;13810;48.376;10.944;2022-07-29T01:03:03;6.90;;;3.90;;
26036;SDS011;13810;48.376;10.944;2022-07-29T01:03:34;6.65;;;4.10;;
26036;SDS011;13810;48.376;10.944;2022-07-29T01:04:05;6.55;;;4.40;;
26036;SDS011;13810;48.376;10.944;2022-07-29T01:04:36;5.10;;;3.97;;
26036;SDS011;13810;48.376;10.944;2022-07-29T01:05:07;5.15;;;3.90;;
26036;SDS011;13810;48.376;10.944;2022-07-29T01:05:38;8.90;;;4.40;;
26036;SDS011;13810;48.376;10.944;2022-07-29T01:06:10;6.20;;;4.15;;
26036;SDS011;13810;48.376;10.944;2022-07-29T01:06:41;6.47;;;3.85;;
26036;SDS011;13810;48.376;10.944;2022-07-29T01:07:12;5.47;;;4.20;;
26036;SDS011;13810;48.376;10.944;2022-07-29T01:07:43;6.00;;;4.13;;
26036;SDS011;13810;48.376;10.944;2022-07-29T01:08:15;5.75;;;4.18;;
26036;SDS011;13810;48.376;10.944;2022-07-29T01:08:46;6.80;;;4.25;;
26036;SDS011;13810;48.376;10.944;2022-07-29T01:09:18;6.20;;;4.38;;
26036;SDS011;13810;48.376;10.944;2022-07-29T01:09:49;7.93;;;4.15;;
26036;SDS011;13810;48.376;10.944;2022-07-29T01:10:21;5.45;;;4.00;;
26036;SDS011;13810;48.376;10.944;2022-07-29T01:10:52;7.50;;;4.40;;
26036;SDS011;13810;48.376;10.944;2022-07-29T01:11:24;5.97;;;4.40;;
26036;SDS011;13810;48.376;10.944;2022-07-29T01:11:55;5.20;;;4.13;;
26036;SDS011;13810;48.376;10.944;2022-07-29T01:12:27;7.72;;;4.97;;
26036;SDS011;13810;48.376;10.944;2022-07-29T01:13:01;6.13;;;4.72;;
26036;SDS011;13810;48.376;10.944;2022-07-29T01:13:32;7.80;;;5.35;;
26036;SDS011;13810;48.376;10.944;2022-07-29T01:14:03;6.03;;;4.88;;
26036;SDS011;13810;48.376;10.944;2022-07-29T01:14:37;6.15;;;4.90;;
26036;SDS011;13810;48.376;10.944;2022-07-29T01:15:08;7.05;;;5.32;;
26036;SDS011;13810;48.376;10.944;2022-07-29T01:15:42;5.88;;;4.65;;
26036;SDS011;13810;48.376;10.944;2022-07-29T01:16:18;12.50;;;5.53;;
26036;SDS011;13810;48.376;10.944;2022-07-29T01:16:56;6.82;;;5.28;;
26036;SDS011;13810;48.376;10.944;2022-07-29T01:17:43;6.07;;;5.22;;
26036;SDS011;13810;48.376;10.944;2022-07-29T01:18:28;8.27;;;4.78;;
26036;SDS011;13810;48.376;10.944;2022-07-29T01:19:07;8.80;;;5.65;;
26036;SDS011;13810;48.376;10.944;2022-07-29T01:20:10;8.13;;;5.30;;
26036;SDS011;13810;48.376;10.944;2022-07-29T01:22:05;8.43;;;5.68;;
26036;SDS011;13810;48.376;10.944;2022-07-29T01:26:52;7.07;;;5.40;;
26036;SDS011;13810;48.376;10.944;2022-07-29T01:27:41;7.70;;;5.40;;
26036;SDS011;13810;48.376;10.944;2022-07-29T01:29:38;10.65;;;6.18;;
26036;SDS011;13810;48.376;10.944;2022-07-29T01:30:15;8.52;;;5.78;;
26036;SDS011;13810;48.376;10.944;2022-07-29T01:30:46;8.13;;;6.07;;
26036;SDS011;13810;48.376;10.944;2022-07-29T01:31:22;7.07;;;5.40;;
26036;SDS011;13810;48.376;10.944;2022-07-29T01:32:21;6.82;;;5.78;;
26036;SDS011;13810;48.376;10.944;2022-07-29T01:32:59;6.78;;;6.07;;
26036;SDS011;13810;48.376;10.944;2022-07-29T01:33:33;6.55;;;5.25;;
26036;SDS011;13810;48.376;10.944;2022-07-29T01:34:24;7.65;;;6.05;;
26036;SDS011;13810;48.376;10.944;2022-07-29T01:35:23;7.20;;;5.30;;
26036;SDS011;13810;48.376;10.944;2022-07-29T01:35:56;8.13;;;6.13;;
26036;SDS011;13810;48.376;10.944;2022-07-29T01:36:30;8.80;;;6.38;;
26036;SDS011;13810;48.376;10.944;2022-07-29T01:37:20;8.18;;;5.97;;
26036;SDS011;13810;48.376;10.944;2022-07-29T01:38:11;7.00;;;5.65;;
26036;SDS011;13810;48.376;10.944;2022-07-29T01:38:45;6.90;;;6.07;;
26036;SDS011;13810;48.376;10.944;2022-07-29T01:39:35;7.18;;;5.90;;
26036;SDS011;13810;48.376;10.944;2022-07-29T01:40:19;8.38;;;6.18;;
26036;SDS011;13810;48.376;10.944;2022-07-29T01:40:58;8.73;;;6.20;;
26036;SDS011;13810;48.376;10.944;2022-07-29T01:41:49;7.20;;;5.75;;
26036;SDS011;13810;48.376;10.944;2022-07-29T01:42:41;6.93;;;5.35;;
26036;SDS011;13810;48.376;10.944;2022-07-29T01:43:17;10.38;;;6.03;;
26036;SDS011;13810;48.376;10.944;2022-07-29T01:43:53;6.40;;;5.72;;
26036;SDS011;13810;48.376;10.944;2022-07-29T01:44:34;8.57;;;5.65;;
26036;SDS011;13810;48.376;10.944;2022-07-29T01:45:20;7.53;;;5.80;;
26036;SDS011;13810;48.376;10.944;2022-07-29T01:45:56;9.73;;;5.95;;
26036;SDS011;13810;48.376;10.944;2022-07-29T01:46:35;7.65;;;5.70;;
26036;SDS011;13810;48.376;10.944;2022-07-29T01:47:11;7.50;;;5.57;;
26036;SDS011;13810;48.376;10.944;2022-07-29T01:48:38;10.25;;;5.75;;
26036;SDS011;13810;48.376;10.944;2022-07-29T01:49:24;6.35;;;5.32;;
26036;SDS011;13810;48.376;10.944;2022-07-29T01:49:59;7.35;;;5.20;;
26036;SDS011;13810;48.376;10.944;2022-07-29T01:50:35;7.35;;;5.95;;
26036;SDS011;13810;48.376;10.944;2022-07-29T01:51:20;7.40;;;5.80;;
26036;SDS011;13810;48.376;10.944;2022-07-29T01:51:58;7.45;;;5.78;;
26036;SDS011;13810;48.376;10.944;2022-07-29T01:52:38;8.43;;;5.85;;
26036;SDS011;13810;48.376;10.944;2022-07-29T01:53:54;9.50;;;5.95;;
26036;SDS011;13810;48.376;10.944;2022-07-29T01:54:39;7.43;;;5.68;;
26036;SDS011;13810;48.376;10.944;2022-07-29T01:55:13;8.50;;;6.13;;
26036;SDS011;13810;48.376;10.944;2022-07-29T01:55:46;9.30;;;6.28;;
26036;SDS011;13810;48.376;10.944;2022-07-29T01:56:18;8.32;;;6.28;;
26036;SDS011;13810;48.376;10.944;2022-07-29T01:56:51;6.35;;;5.30;;
26036;SDS011;13810;48.376;10.944;2022-07-29T01:57:27;6.82;;;5.85;;
26036;SDS011;13810;48.376;10.944;2022-07-29T01:58:00;9.43;;;6.45;;
26036;SDS011;13810;48.376;10.944;2022-07-29T01:58:33;9.20;;;5.95;;
26036;SDS011;13810;48.376;10.944;2022-07-29T01:59:06;9.27;;;5.60;;
26036;SDS011;13810;48.376;10.944;2022-07-29T01:59:39;7.90;;;5.85;;
26036;SDS011;13810;48.376;10.944;2022-07-29T02:00:12;11.90;;;5.90;;
26036;SDS011;13810;48.376;10.944;2022-07-29T02:00:44;13.02;;;6.00;;
26036;SDS011;13810;48.376;10.944;2022-07-29T02:01:16;8.10;;;6.10;;
26036;SDS011;13810;48.376;10.944;2022-07-29T02:01:48;7.05;;;6.32;;
26036;SDS011;13810;48.376;10.944;2022-07-29T02:02:22;11.07;;;6.30;;
26036;SDS011;13810;48.376;10.944;2022-07-29T02:02:54;8.57;;;6.07;;
26036;SDS011;13810;48.376;10.944;2022-07-29T02:03:28;9.05;;;6.20;;
26036;SDS011;13810;48.376;10.944;2022-07-29T02:04:02;8.15;;;6.28;;
26036;SDS011;13810;48.376;10.944;2022-07-29T02:04:35;9.05;;;5.70;;
26036;SDS011;13810;48.376;10.944;2022-07-29T02:05:08;7.18;;;5.30;;
26036;SDS011;13810;48.376;10.944;2022-07-29T02:05:42;8.32;;;5.30;;
26036;SDS011;13810;48.376;10.944;2022-07-29T02:06:17;9.88;;;6.18;;
26036;SDS011;13810;48.376;10.944;2022-07-29T02:06:51;7.10;;;4.78;;
26036;SDS011;13810;48.376;10.944;2022-07-29T02:07:24;9.48;;;5.55;;
26036;SDS011;13810;48.376;10.944;2022-07-29T02:07:59;7.75;;;5.20;;
26036;SDS011;13810;48.376;10.944;2022-07-29T02:08:32;7.90;;;5.80;;
26036;SDS011;13810;48.376;10.944;2022-07-29T02:09:03;10.40;;;5.05;;
26036;SDS011;13810;48.376;10.944;2022-07-29T02:09:36;11.25;;;6.15;;
26036;SDS011;13810;48.376;10.944;2022-07-29T02:10:09;5.65;;;4.82;;
26036;SDS011;13810;48.376;10.944;2022-07-29T02:10:41;9.75;;;5.25;;
26036;SDS011;13810;48.376;10.944;2022-07-29T02:11:13;8.35;;;4.80;;
26036;SDS011;13810;48.376;10.944;2022-07-29T02:11:52;7.03;;;5.28;;
26036;SDS011;13810;48.376;10.944;2022-07-29T02:12:25;11.10;;;4.80;;
26036;SDS011;13810;48.376;10.944;2022-07-29T02:12:58;6.40;;;4.50;;
26036;SDS011;13810;48.376;10.944;2022-07-29T02:13:31;7.03;;;4.65;;
26036;SDS011;13810;48.376;10.944;2022-07-29T02:14:04;6.13;;;5.05;;
26036;SDS011;13810;48.376;10.944;2022-07-29T02:14:37;7.55;;;4.85;;
26036;SDS011;13810;48.376;10.944;2022-07-29T02:15:10;6.57;;;5.05;;
26036;SDS011;13810;48.376;10.944;2022-07-29T02:15:42;7.22;;;5.72;;
26036;SDS011;13810;48.376;10.944;2022-07-29T02:16:14;5.72;;;4.70;;
26036;SDS011;13810;48.376;10.944;2022-07-29T02:16:48;8.57;;;5.38;;
26036;SDS011;13810;48.376;10.944;2022-07-29T02:17:23;7.55;;;4.85;;
26036;SDS011;13810;48.376;10.944;2022-07-29T02:18:07;8.50;;;5.38;;
26036;SDS011;13810;48.376;10.944;2022-07-29T02:18:42;7.97;;;5.25;;
26036;SDS011;13810;48.376;10.944;2022-07-29T02:19:16;6.82;;;5.03;;
26036;SDS011;13810;48.376;10.944;2022-07-29T02:19:48;6.88;;;4.93;;
26036;SDS011;13810;48.376;10.944;2022-07-29T02:20:20;13.32;;;5.50;;
26036;SDS011;13810;48.376;10.944;2022-07-29T02:20:54;8.27;;;5.00;;
26036;SDS011;13810;48.376;10.944;2022-07-29T02:21:26;7.68;;;4.80;;
26036;SDS011;13810;48.376;10.944;2022-07-29T02:21:59;6.15;;;4.63;;
26036;SDS011;13810;48.376;10.944;2022-07-29T02:22:31;6.78;;;5.25;;
26036;SDS011;13810;48.376;10.944;2022-07-29T02:23:05;7.80;;;5.25;;
26036;SDS011;13810;48.376;10.944;2022-07-29T02:23:37;5.80;;;4.28;;
26036;SDS011;13810;48.376;10.944;2022-07-29T02:24:09;6.38;;;5.07;;
26036;SDS011;13810;48.376;10.944;2022-07-29T02:24:42;6.05;;;4.95;;
26036;SDS011;13810;48.376;10.944;2022-07-29T02:25:14;6.10;;;4.53;;
26036;SDS011;13810;48.376;10.944;2022-07-29T02:25:51;6.85;;;5.03;;
26036;SDS011;13810;48.376;10.944;2022-07-29T02:26:24;8.15;;;5.00;;
26036;SDS011;13810;48.376;10.944;2022-07-29T02:26:57;9.25;;;4.72;;
26036;SDS011;13810;48.376;10.944;2022-07-29T02:27:30;8.88;;;5.20;;
26036;SDS011;13810;48.376;10.944;2022-07-29T02:28:05;7.22;;;5.15;;
26036;SDS011;13810;48.376;10.944;2022-07-29T02:28:38;8.35;;;5.20;;
26036;SDS011;13810;48.376;10.944;2022-07-29T02:29:10;5.53;;;4.80;;
26036;SDS011;13810;48.376;10.944;2022-07-29T02:29:42;9.25;;;5.57;;
26036;SDS011;13810;48.376;10.944;2022-07-29T02:30:15;13.13;;;5.57;;
26036;SDS011;13810;48.376;10.944;2022-07-29T02:30:46;9.30;;;4.78;;
26036;SDS011;13810;48.376;10.944;2022-07-29T02:31:18;7.40;;;4.95;;
26036;SDS011;13810;48.376;10.944;2022-07-29T02:31:51;8.63;;;4.93;;
26036;SDS011;13810;48.376;10.944;2022-07-29T02:32:23;6.43;;;4.50;;
26036;SDS011;13810;48.376;10.944;2022-07-29T02:32:56;7.57;;;4.47;;
26036;SDS011;13810;48.376;10.944;2022-07-29T02:33:27;6.03;;;4.78;;
26036;SDS011;13810;48.376;10.944;2022-07-29T02:34:05;6.03;;;4.68;;
26036;SDS011;13810;48.376;10.944;2022-07-29T02:34:38;7.43;;;5.03;;
26036;SDS011;13810;48.376;10.944;2022-07-29T02:35:10;8.48;;;5.10;;
26036;SDS011;13810;48.376;10.944;2022-07-29T02:35:44;8.05;;;4.78;;
26036;SDS011;13810;48.376;10.944;2022-07-29T02:36:18;10.60;;;5.25;;
26036;SDS011;13810;48.376;10.944;2022-07-29T02:36:52;7.53;;;4.53;;
26036;SDS011;13810;48.376;10.944;2022-07-29T02:37:25;9.20;;;5.07;;
26036;SDS011;13810;48.376;10.944;2022-07-29T02:37:57;7.35;;;4.38;;
26036;SDS011;13810;48.376;10.944;2022-07-29T02:38:47;5.75;;;4.38;;
26036;SDS011;13810;48.376;10.944;2022-07-29T02:39:22;6.10;;;4.50;;
26036;SDS011;13810;48.376;10.944;2022-07-29T02:39:56;5.28;;;4.15;;
26036;SDS011;13810;48.376;10.944;2022-07-29T02:40:28;6.55;;;4.80;;
26036;SDS011;13810;48.376;10.944;2022-07-29T02:41:00;8.35;;;5.18;;
26036;SDS011;13810;48.376;10.944;2022-07-29T02:41:35;6.03;;;4.50;;
26036;SDS011;13810;48.376;10.944;2022-07-29T02:42:13;10.38;;;4.55;;
26036;SDS011;13810;48.376;10.944;2022-07-29T02:42:46;11.70;;;4.70;;
26036;SDS011;13810;48.376;10.944;2022-07-29T02:43:17;8.32;;;4.38;;
26036;SDS011;13810;48.376;10.944;2022-07-29T02:43:53;6.00;;;4.43;;
26036;SDS011;13810;48.376;10.944;2022-07-29T02:44:26;9.50;;;4.65;;
26036;SDS011;13810;48.376;10.944;2022-07-29T02:44:57;5.53;;;4.45;;
26036;SDS011;13810;48.376;10.944;2022-07-29T02:45:28;7.05;;;4.93;;
26036;SDS011;13810;48.376;10.944;2022-07-29T02:45:59;6.07;;;4.70;;
26036;SDS011;13810;48.376;10.944;2022-07-29T02:46:33;7.00;;;4.88;;
26036;SDS011;13810;48.376;10.944;2022-07-29T02:48:15;7.72;;;4.30;;
26036;SDS011;13810;48.376;10.944;2022-07-29T02:48:48;6.70;;;4.20;;
26036;SDS011;13810;48.376;10.944;2022-07-29T02:49:42;8.05;;;4.75;;
26036;SDS011;13810;48.376;10.944;2022-07-29T02:50:31;4.97;;;3.85;;
26036;SDS011;13810;48.376;10.944;2022-07-29T02:51:05;7.05;;;4.78;;
26036;SDS011;13810;48.376;10.944;2022-07-29T02:51:43;6.50;;;4.53;;
26036;SDS011;13810;48.376;10.944;2022-07-29T02:52:24;10.82;;;4.63;;
26036;SDS011;13810;48.376;10.944;2022-07-29T02:53:42;5.25;;;4.32;;
26036;SDS011;13810;48.376;10.944;2022-07-29T02:54:23;7.22;;;4.78;;
26036;SDS011;13810;48.376;10.944;2022-07-29T02:55:43;7.25;;;4.20;;
26036;SDS011;13810;48.376;10.944;2022-07-29T02:56:23;8.13;;;4.00;;
26036;SDS011;13810;48.376;10.944;2022-07-29T02:56:55;5.32;;;4.25;;
26036;SDS011;13810;48.376;10.944;2022-07-29T02:57:33;6.88;;;4.35;;
26036;SDS011;13810;48.376;10.944;2022-07-29T02:58:15;7.28;;;4.75;;
26036;SDS011;13810;48.376;10.944;2022-07-29T02:58:58;6.15;;;4.60;;
26036;SDS011;13810;48.376;10.944;2022-07-29T02:59:30;7.97;;;4.63;;
26036;SDS011;13810;48.376;10.944;2022-07-29T03:00:05;6.60;;;4.63;;
26036;SDS011;13810;48.376;10.944;2022-07-29T03:00:39;8.45;;;4.35;;
26036;SDS011;13810;48.376;10.944;2022-07-29T03:01:11;6.22;;;4.65;;
26036;SDS011;13810;48.376;10.944;2022-07-29T03:01:49;6.38;;;4.82;;
26036;SDS011;13810;48.376;10.944;2022-07-29T03:02:21;11.00;;;4.63;;
26036;SDS011;13810;48.376;10.944;2022-07-29T03:02:54;4.85;;;4.13;;
26036;SDS011;13810;48.376;10.944;2022-07-29T03:03:29;7.38;;;4.10;;
26036;SDS011;13810;48.376;10.944;2022-07-29T03:04:05;7.97;;;4.68;;
26036;SDS011;13810;48.376;10.944;2022-07-29T03:04:39;5.88;;;4.70;;
26036;SDS011;13810;48.376;10.944;2022-07-29T03:05:14;7.78;;;5.28;;
26036;SDS011;13810;48.376;10.944;2022-07-29T03:05:47;8.35;;;5.00;;
26036;SDS011;13810;48.376;10.944;2022-07-29T03:06:18;8.48;;;4.93;;
26036;SDS011;13810;48.376;10.944;2022-07-29T03:06:51;5.80;;;4.25;;
26036;SDS011;13810;48.376;10.944;2022-07-29T03:07:23;5.93;;;4.10;;
26036;SDS011;13810;48.376;10.944;2022-07-29T03:07:55;7.00;;;5.30;;
26036;SDS011;13810;48.376;10.944;2022-07-29T03:08:33;9.45;;;4.68;;
26036;SDS011;13810;48.376;10.944;2022-07-29T03:09:06;6.25;;;5.05;;
26036;SDS011;13810;48.376;10.944;2022-07-29T03:09:37;4.90;;;4.15;;
26036;SDS011;13810;48.376;10.944;2022-07-29T03:10:09;6.05;;;4.55;;
26036;SDS011;13810;48.376;10.944;2022-07-29T03:10:42;6.63;;;4.38;;
26036;SDS011;13810;48.376;10.944;2022-07-29T03:11:14;5.40;;;4.35;;
26036;SDS011;13810;48.376;10.944;2022-07-29T03:11:46;4.38;;;3.65;;
26036;SDS011;13810;48.376;10.944;2022-07-29T03:12:17;6.88;;;5.00;;
26036;SDS011;13810;48.376;10.944;2022-07-29T03:12:49;6.95;;;5.13;;
26036;SDS011;13810;48.376;10.944;2022-07-29T03:13:20;8.93;;;5.13;;
26036;SDS011;13810;48.376;10.944;2022-07-29T03:13:51;6.15;;;4.63;;
26036;SDS011;13810;48.376;10.944;2022-07-29T03:14:23;6.90;;;5.30;;
26036;SDS011;13810;48.376;10.944;2022-07-29T03:14:55;7.68;;;5.53;;
26036;SDS011;13810;48.376;10.944;2022-07-29T03:15:27;7.65;;;5.55;;
26036;SDS011;13810;48.376;10.944;2022-07-29T03:15:58;8.55;;;5.30;;
26036;SDS011;13810;48.376;10.944;2022-07-29T03:16:29;6.78;;;5.22;;
26036;SDS011;13810;48.376;10.944;2022-07-29T03:17:00;7.97;;;5.60;;
26036;SDS011;13810;48.376;10.944;2022-07-29T03:17:32;6.07;;;4.85;;
26036;SDS011;13810;48.376;10.944;2022-07-29T03:18:04;8.18;;;5.35;;
26036;SDS011;13810;48.376;10.944;2022-07-29T03:18:36;6.78;;;5.30;;
26036;SDS011;13810;48.376;10.944;2022-07-29T03:19:08;9.57;;;5.50;;
26036;SDS011;13810;48.376;10.944;2022-07-29T03:19:38;7.75;;;6.10;;
26036;SDS011;13810;48.376;10.944;2022-07-29T03:20:10;9.05;;;5.65;;
26036;SDS011;13810;48.376;10.944;2022-07-29T03:20:42;9.82;;;6.78;;
26036;SDS011;13810;48.376;10.944;2022-07-29T03:21:13;8.60;;;5.95;;
26036;SDS011;13810;48.376;10.944;2022-07-29T03:21:44;7.75;;;5.95;;
26036;SDS011;13810;48.376;10.944;2022-07-29T03:22:15;11.02;;;6.45;;
26036;SDS011;13810;48.376;10.944;2022-07-29T03:22:46;7.47;;;5.40;;
26036;SDS011;13810;48.376;10.944;2022-07-29T03:23:20;8.48;;;6.22;;
26036;SDS011;13810;48.376;10.944;2022-07-29T03:23:52;8.73;;;6.18;;
26036;SDS011;13810;48.376;10.944;2022-07-29T03:25:07;8.15;;;5.43;;
26036;SDS011;13810;48.376;10.944;2022-07-29T03:25:38;9.57;;;5.80;;
26036;SDS011;13810;48.376;10.944;2022-07-29T03:26:09;11.32;;;6.05;;
26036;SDS011;13810;48.376;10.944;2022-07-29T03:26:40;6.60;;;5.43;;
26036;SDS011;13810;48.376;10.944;2022-07-29T03:27:10;7.40;;;6.10;;
26036;SDS011;13810;48.376;10.944;2022-07-29T03:27:41;9.48;;;6.18;;
26036;SDS011;13810;48.376;10.944;2022-07-29T03:28:12;17.38;;;5.25;;
26036;SDS011;13810;48.376;10.944;2022-07-29T03:28:42;9.55;;;5.97;;
26036;SDS011;13810;48.376;10.944;2022-07-29T03:29:13;9.55;;;5.60;;
26036;SDS011;13810;48.376;10.944;2022-07-29T03:29:44;8.38;;;6.00;;
26036;SDS011;13810;48.376;10.944;2022-07-29T03:30:15;8.90;;;6.00;;
26036;SDS011;13810;48.376;10.944;2022-07-29T03:30:46;7.53;;;5.78;;